Time;durP1;ratioP1;P1;durP2;ratioP2;P2;SDS_P1;SDS_P2;PMS_P1;PMS_P2;Temp;Humidity;BMP_temperature;BMP_pressure;BME280_temperature;BME280_humidity;BME280_pressure;Samples;Min_cycle;Max_cycle;Signal;HPM_P1;HPM_P2
2021/07/03 00:02:06;;;;;;;14.93;8.55;;;17.50;99.90;;;;;;4976062;28;20183;-86
2021/07/03 00:04:32;;;;;;;18.98;8.52;;;;;;;;;;4976991;28;20183;-86
2021/07/03 00:06:58;;;;;;;9.32;7.68;;;17.80;99.90;;;;;;4975060;28;20190;-85
2021/07/03 00:09:23;;;;;;;14.63;8.48;;;17.90;99.90;;;;;;4975470;28;20652;-86
2021/07/03 00:11:49;;;;;;;11.27;7.57;;;18.10;99.90;;;;;;4975406;28;20178;-86
2021/07/03 00:14:15;;;;;;;13.57;8.13;;;;;;;;;;4975851;28;20293;-87
2021/07/03 00:16:43;;;;;;;9.23;7.55;;;17.70;99.90;;;;;;4975735;28;20190;-86
2021/07/03 00:19:09;;;;;;;9.43;7.50;;;17.70;99.90;;;;;;4981150;28;20167;-85
2021/07/03 00:21:34;;;;;;;10.38;7.47;;;17.70;99.90;;;;;;4958617;28;20183;-86
2021/07/03 00:24:00;;;;;;;9.20;6.95;;;17.80;99.90;;;;;;4974615;28;20209;-86
2021/07/03 00:26:26;;;;;;;13.32;7.80;;;17.80;99.90;;;;;;4974709;28;20189;-86
2021/07/03 00:28:52;;;;;;;10.07;7.43;;;17.90;99.90;;;;;;4976264;28;20190;-86
2021/07/03 00:31:17;;;;;;;8.57;6.70;;;17.90;99.90;;;;;;4975597;28;20187;-85
2021/07/03 00:33:43;;;;;;;10.75;7.32;;;17.80;99.90;;;;;;4975976;28;20218;-87
2021/07/03 00:36:09;;;;;;;14.15;7.72;;;17.80;99.90;;;;;;4974080;28;20234;-85
2021/07/03 00:38:35;;;;;;;10.85;7.72;;;17.80;99.90;;;;;;4975888;28;20174;-85
2021/07/03 00:41:01;;;;;;;10.63;7.28;;;17.80;99.90;;;;;;4974337;28;20182;-84
2021/07/03 00:43:27;;;;;;;9.82;7.93;;;17.90;99.90;;;;;;4974511;28;20193;-84
2021/07/03 00:45:52;;;;;;;12.55;7.22;;;17.90;99.90;;;;;;4958560;28;20182;-85
2021/07/03 00:48:19;;;;;;;12.30;7.20;;;17.90;99.90;;;;;;4975620;28;20233;-85
2021/07/03 00:50:45;;;;;;;9.65;6.72;;;17.80;99.90;;;;;;4974298;28;20194;-85
2021/07/03 00:53:10;;;;;;;9.05;7.38;;;17.90;99.90;;;;;;4974230;28;20532;-84
2021/07/03 00:55:37;;;;;;;14.77;7.18;;;17.90;99.90;;;;;;4958460;28;20186;-85
2021/07/03 00:58:04;;;;;;;9.30;7.03;;;17.90;99.90;;;;;;4974904;28;20206;-85
2021/07/03 01:00:30;;;;;;;10.60;7.30;;;;;;;;;;4975614;28;20174;-85
2021/07/03 01:02:55;;;;;;;9.50;7.63;;;17.90;99.90;;;;;;4975454;28;20182;-85
2021/07/03 01:05:21;;;;;;;10.38;7.68;;;17.90;99.90;;;;;;4975086;28;20586;-85
2021/07/03 01:07:47;;;;;;;11.13;7.75;;;17.90;99.90;;;;;;4975334;28;20273;-85
2021/07/03 01:10:21;;;;;;;13.07;7.15;;;17.80;99.90;;;;;;4974572;28;20257;-85
2021/07/03 01:12:47;;;;;;;10.52;7.13;;;17.80;99.90;;;;;;4974058;28;20547;-85
2021/07/03 01:15:13;;;;;;;11.48;7.13;;;17.80;99.90;;;;;;4957762;28;20206;-85
2021/07/03 01:17:39;;;;;;;8.68;7.57;;;17.80;99.90;;;;;;4957835;28;20660;-85
2021/07/03 01:20:05;;;;;;;13.55;7.53;;;17.80;99.90;;;;;;4973638;28;20178;-85
2021/07/03 01:22:32;;;;;;;11.88;7.78;;;17.80;99.90;;;;;;4973731;28;20698;-85
2021/07/03 01:24:58;;;;;;;11.73;8.02;;;17.70;99.90;;;;;;4974059;28;20194;-85
2021/07/03 01:27:23;;;;;;;9.80;7.90;;;17.70;99.90;;;;;;4974379;28;20256;-86
2021/07/03 01:29:49;;;;;;;12.02;8.18;;;17.70;99.90;;;;;;4957683;28;20674;-85
2021/07/03 01:32:15;;;;;;;11.15;8.18;;;17.60;99.90;;;;;;4973172;28;20194;-85
2021/07/03 01:34:41;;;;;;;11.48;8.43;;;17.70;99.90;;;;;;4974835;28;20290;-87
2021/07/03 01:37:07;;;;;;;16.05;7.95;;;17.70;99.90;;;;;;4973163;28;20325;-85
2021/07/03 01:39:32;;;;;;;11.60;8.73;;;17.70;99.90;;;;;;4973759;28;20186;-84
2021/07/03 01:41:58;;;;;;;11.93;7.82;;;17.60;99.90;;;;;;4973561;28;20183;-84
2021/07/03 01:44:28;;;;;;;13.23;8.20;;;17.60;99.90;;;;;;4974695;28;20189;-84
2021/07/03 01:46:59;;;;;;;10.02;8.18;;;17.60;99.90;;;;;;4974375;28;20253;-84
2021/07/03 01:49:29;;;;;;;10.20;7.63;;;17.60;99.90;;;;;;4973738;28;20632;-85
2021/07/03 01:51:55;;;;;;;10.65;8.05;;;17.60;99.90;;;;;;4974364;28;20509;-85
2021/07/03 01:54:22;;;;;;;13.15;8.27;;;17.50;99.90;;;;;;4972671;28;20214;-84
2021/07/03 01:56:58;;;;;;;13.52;9.00;;;17.50;99.90;;;;;;4973169;28;20206;-85
2021/07/03 01:59:31;;;;;;;10.98;8.27;;;17.30;99.90;;;;;;4973013;28;20173;-85
2021/07/03 02:01:59;;;;;;;15.18;9.40;;;17.20;99.90;;;;;;4973076;28;20241;-83
2021/07/03 02:04:25;;;;;;;11.90;9.13;;;17.10;99.90;;;;;;4974097;28;20196;-83
2021/07/03 02:06:50;;;;;;;12.82;9.05;;;17.10;99.90;;;;;;4973211;28;20182;-84
2021/07/03 02:09:17;;;;;;;13.57;9.32;;;17.10;99.90;;;;;;4974142;28;20536;-84
2021/07/03 02:11:43;;;;;;;13.88;9.65;;;17.10;99.90;;;;;;4974597;28;20210;-84
2021/07/03 02:14:09;;;;;;;13.07;8.73;;;16.90;99.90;;;;;;4974152;28;20726;-84
2021/07/03 02:16:35;;;;;;;14.50;9.65;;;16.90;99.90;;;;;;4973826;28;20293;-84
2021/07/03 02:19:03;;;;;;;11.27;9.13;;;16.90;99.90;;;;;;4973819;28;20261;-84
2021/07/03 02:21:31;;;;;;;14.52;9.63;;;16.90;99.90;;;;;;4973804;28;20186;-83
2021/07/03 02:23:57;;;;;;;12.48;8.80;;;16.80;99.90;;;;;;4978067;28;20182;-83
2021/07/03 02:26:23;;;;;;;10.25;8.20;;;;;;;;;;4976362;28;20193;-84
2021/07/03 02:28:50;;;;;;;9.35;7.40;;;16.80;99.90;;;;;;4960606;28;20190;-83
2021/07/03 02:31:16;;;;;;;12.98;7.97;;;16.70;99.90;;;;;;4976227;28;20636;-83
2021/07/03 02:33:43;;;;;;;10.73;8.20;;;16.70;99.90;;;;;;4976572;28;20630;-84
2021/07/03 02:36:08;;;;;;;8.90;7.07;;;16.70;99.90;;;;;;4978194;28;20256;-84
2021/07/03 02:38:34;;;;;;;10.68;6.50;;;16.80;99.90;;;;;;4977328;28;20597;-84
2021/07/03 02:41:00;;;;;;;9.30;6.85;;;16.80;99.90;;;;;;4976463;28;20234;-84
2021/07/03 02:43:25;;;;;;;7.78;6.22;;;16.70;99.90;;;;;;4976081;28;20195;-84
2021/07/03 02:45:51;;;;;;;12.02;7.47;;;16.70;99.90;;;;;;4978081;28;20179;-84
2021/07/03 02:48:17;;;;;;;8.10;5.68;;;16.70;99.90;;;;;;4977323;28;20182;-84
2021/07/03 02:50:43;;;;;;;8.27;6.10;;;16.70;99.90;;;;;;4977794;28;20527;-84
2021/07/03 02:53:08;;;;;;;10.68;6.47;;;16.70;99.90;;;;;;4977547;28;20230;-84
2021/07/03 02:55:34;;;;;;;6.82;5.50;;;16.70;99.90;;;;;;4977002;28;20222;-84
2021/07/03 02:58:00;;;;;;;7.07;5.70;;;16.70;99.90;;;;;;4977378;28;20237;-84
2021/07/03 03:00:27;;;;;;;9.05;5.80;;;16.70;99.90;;;;;;4975952;28;20186;-85
2021/07/03 03:02:52;;;;;;;7.60;5.68;;;16.70;99.90;;;;;;4975969;28;20182;-84
2021/07/03 03:05:18;;;;;;;6.15;4.95;;;16.70;99.90;;;;;;4976921;28;20190;-83
2021/07/03 03:07:44;;;;;;;6.05;4.50;;;16.70;99.90;;;;;;4977228;28;20179;-84
2021/07/03 03:10:15;;;;;;;6.03;4.18;;;16.70;99.90;;;;;;4976109;28;20183;-85
2021/07/03 03:12:42;;;;;;;5.35;4.57;;;16.80;99.90;;;;;;4975506;28;20185;-84
2021/07/03 03:15:08;;;;;;;7.38;4.20;;;16.70;99.90;;;;;;4975719;28;20202;-84
2021/07/03 03:17:34;;;;;;;4.72;4.22;;;16.70;99.90;;;;;;4975499;28;20202;-85
2021/07/03 03:20:00;;;;;;;4.20;3.80;;;16.70;99.90;;;;;;4977276;28;20175;-84
2021/07/03 03:22:26;;;;;;;4.35;3.95;;;16.70;99.90;;;;;;4975709;28;20182;-85
2021/07/03 03:24:52;;;;;;;4.80;3.60;;;;;;;;;;4977150;28;20179;-86
2021/07/03 03:27:17;;;;;;;5.95;3.83;;;16.80;99.90;;;;;;4975467;28;20186;-85
2021/07/03 03:29:43;;;;;;;3.58;3.00;;;;;;;;;;4975095;28;20620;-86
2021/07/03 03:32:09;;;;;;;4.50;3.80;;;16.80;99.90;;;;;;4959610;28;20194;-86
2021/07/03 03:34:35;;;;;;;4.03;3.40;;;16.80;99.90;;;;;;4974897;28;20330;-86
2021/07/03 03:37:00;;;;;;;6.00;3.70;;;16.80;99.90;;;;;;4976734;28;20230;-85
2021/07/03 03:39:26;;;;;;;5.30;3.40;;;16.80;99.90;;;;;;4975369;28;20631;-85
2021/07/03 03:41:52;;;;;;;3.42;3.00;;;16.80;99.90;;;;;;4975803;28;20655;-85
2021/07/03 03:44:19;;;;;;;4.07;3.33;;;16.70;99.90;;;;;;4976877;28;20187;-85
2021/07/03 03:46:45;;;;;;;3.60;2.90;;;16.80;99.90;;;;;;4975152;28;20620;-85
2021/07/03 03:49:11;;;;;;;3.50;3.08;;;16.80;99.90;;;;;;4976516;28;20179;-84
2021/07/03 03:51:37;;;;;;;3.42;3.00;;;16.80;99.90;;;;;;4974724;28;20590;-84
2021/07/03 03:54:03;;;;;;;4.13;3.30;;;16.80;99.90;;;;;;4975307;28;20739;-84
2021/07/03 03:56:28;;;;;;;3.50;3.20;;;16.80;99.90;;;;;;4975743;28;20270;-85
2021/07/03 03:58:54;;;;;;;3.92;3.30;;;16.80;99.90;;;;;;4976300;28;20612;-85
2021/07/03 04:01:20;;;;;;;4.78;3.28;;;16.80;99.90;;;;;;4976704;28;20186;-85
2021/07/03 04:03:45;;;;;;;4.60;4.20;;;16.80;99.90;;;;;;4974454;28;20190;-84
2021/07/03 04:06:11;;;;;;;4.72;4.00;;;16.80;99.90;;;;;;4974935;28;20179;-85
2021/07/03 04:08:37;;;;;;;4.45;3.83;;;16.80;99.90;;;;;;4974504;28;20229;-85
2021/07/03 04:11:04;;;;;;;4.85;4.40;;;16.80;99.90;;;;;;4974504;28;20265;-85
2021/07/03 04:13:32;;;;;;;6.07;4.75;;;16.80;99.90;;;;;;4975555;28;20186;-85
2021/07/03 04:15:58;;;;;;;5.90;4.00;;;16.90;99.90;;;;;;4958806;28;20182;-86
2021/07/03 04:18:24;;;;;;;5.75;4.78;;;16.90;99.90;;;;;;4975650;28;20198;-84
2021/07/03 04:20:49;;;;;;;6.75;5.28;;;16.90;99.90;;;;;;4975763;28;20186;-86
2021/07/03 04:23:15;;;;;;;6.85;6.05;;;16.90;99.90;;;;;;4974405;28;20589;-86
2021/07/03 04:25:41;;;;;;;6.60;5.28;;;16.90;99.90;;;;;;4975430;28;20265;-85
2021/07/03 04:28:06;;;;;;;6.32;5.30;;;16.90;99.90;;;;;;4974327;28;20210;-85
2021/07/03 04:30:32;;;;;;;6.22;5.15;;;17.00;99.90;;;;;;4974192;28;20186;-84
2021/07/03 04:32:58;;;;;;;7.47;5.90;;;16.90;99.90;;;;;;4975616;28;20201;-84
2021/07/03 04:35:23;;;;;;;8.07;5.22;;;17.10;99.90;;;;;;4975210;28;20215;-85
2021/07/03 04:37:49;;;;;;;4.85;4.35;;;17.00;99.90;;;;;;4975566;28;20714;-85
2021/07/03 04:40:15;;;;;;;4.78;4.28;;;17.00;99.90;;;;;;4974272;28;20193;-84
2021/07/03 04:42:40;;;;;;;5.20;4.30;;;17.00;99.90;;;;;;4976780;28;20585;-84
2021/07/03 04:45:07;;;;;;;4.82;4.30;;;17.00;99.90;;;;;;4986150;28;20546;-85
2021/07/03 04:47:34;;;;;;;4.75;3.97;;;17.00;99.90;;;;;;4983896;28;20194;-84
2021/07/03 04:49:59;;;;;;;6.07;4.80;;;17.00;99.90;;;;;;4979409;28;20179;-85
2021/07/03 04:52:26;;;;;;;4.75;4.22;;;16.90;99.90;;;;;;4976625;28;20205;-85
2021/07/03 04:54:52;;;;;;;4.38;3.80;;;17.00;99.90;;;;;;4975483;28;20234;-84
2021/07/03 04:57:18;;;;;;;3.70;3.30;;;17.00;99.90;;;;;;4977853;28;20246;-84
2021/07/03 04:59:44;;;;;;;6.93;3.38;;;17.00;99.90;;;;;;4984633;28;20175;-85
2021/07/03 05:02:12;;;;;;;2.95;2.65;;;17.00;99.90;;;;;;4986881;28;20183;-85
2021/07/03 05:04:39;;;;;;;4.38;2.90;;;17.00;99.90;;;;;;4985871;28;20182;-85
2021/07/03 05:07:05;;;;;;;3.00;2.47;;;17.00;99.90;;;;;;4979399;28;20724;-85
2021/07/03 05:09:32;;;;;;;2.75;2.38;;;17.00;99.90;;;;;;4974636;28;20261;-85
2021/07/03 05:11:58;;;;;;;3.15;1.60;;;17.10;99.90;;;;;;4974987;28;20232;-85
2021/07/03 05:14:24;;;;;;;1.70;1.50;;;17.10;99.90;;;;;;4973625;28;20663;-85
2021/07/03 05:16:50;;;;;;;3.25;1.70;;;17.10;99.90;;;;;;4974730;28;20699;-85
2021/07/03 05:19:16;;;;;;;1.55;1.45;;;17.10;99.90;;;;;;4974836;28;20193;-86
2021/07/03 05:21:43;;;;;;;1.77;1.50;;;17.10;99.90;;;;;;4974830;28;20182;-85
2021/07/03 05:24:09;;;;;;;1.55;1.45;;;17.10;99.90;;;;;;4973530;28;20182;-85
2021/07/03 05:26:35;;;;;;;2.03;1.60;;;17.10;99.90;;;;;;4973252;28;20261;-86
2021/07/03 05:29:00;;;;;;;3.03;1.88;;;17.10;99.90;;;;;;4974919;28;20310;-86
2021/07/03 05:31:26;;;;;;;2.28;2.08;;;17.10;99.90;;;;;;4975111;28;20174;-85
2021/07/03 05:33:52;;;;;;;4.25;2.70;;;17.10;99.90;;;;;;4974771;28;20672;-86
2021/07/03 05:36:18;;;;;;;3.47;2.90;;;17.20;99.90;;;;;;4974643;28;20234;-85
2021/07/03 05:38:48;;;;;;;3.70;3.30;;;17.20;99.90;;;;;;4975807;28;20178;-85
2021/07/03 05:41:15;;;;;;;4.07;3.13;;;17.20;99.90;;;;;;4974211;28;20182;-85
2021/07/03 05:43:41;;;;;;;5.18;3.70;;;17.20;99.90;;;;;;4975339;28;20171;-84
2021/07/03 05:46:08;;;;;;;5.50;3.65;;;17.20;99.90;;;;;;4978991;28;20179;-85
2021/07/03 05:48:35;;;;;;;7.53;5.88;;;17.30;99.90;;;;;;4976422;28;20647;-83
2021/07/03 05:51:01;;;;;;;6.88;4.90;;;17.30;99.90;;;;;;4973894;28;20529;-85
2021/07/03 05:53:27;;;;;;;6.13;5.18;;;17.30;99.90;;;;;;4972993;28;20175;-85
2021/07/03 05:55:52;;;;;;;6.60;5.80;;;17.30;99.90;;;;;;4974386;28;20214;-84
2021/07/03 05:58:18;;;;;;;8.65;6.10;;;17.30;99.90;;;;;;4979135;28;20237;-84
2021/07/03 06:00:43;;;;;;;7.80;5.65;;;17.40;99.90;;;;;;4979447;28;20185;-85
2021/07/03 06:03:09;;;;;;;6.93;5.50;;;17.40;99.90;;;;;;4981441;28;20186;-85
2021/07/03 06:05:35;;;;;;;10.80;5.38;;;17.40;99.90;;;;;;4979995;28;20197;-85
2021/07/03 06:08:01;;;;;;;4.65;4.07;;;17.40;99.90;;;;;;4979056;28;20543;-84
2021/07/03 06:10:26;;;;;;;4.57;3.63;;;17.40;99.90;;;;;;4980414;28;20084;-84
2021/07/03 06:12:52;;;;;;;3.85;3.45;;;17.40;99.90;;;;;;4979511;28;20514;-83
2021/07/03 06:15:18;;;;;;;3.53;2.78;;;17.40;99.90;;;;;;4978467;28;20216;-84
2021/07/03 06:17:43;;;;;;;2.92;2.63;;;17.40;99.90;;;;;;4978450;28;20178;-84
2021/07/03 06:20:10;;;;;;;2.33;2.13;;;17.50;99.90;;;;;;4978804;28;20189;-84
2021/07/03 06:22:38;;;;;;;2.58;2.38;;;17.50;99.90;;;;;;4979630;28;20179;-83
2021/07/03 06:25:06;;;;;;;3.13;2.33;;;17.50;99.90;;;;;;4977164;28;20544;-85
2021/07/03 06:27:32;;;;;;;2.35;2.03;;;17.50;99.90;;;;;;4979955;28;20213;-85
2021/07/03 06:29:58;;;;;;;3.50;2.05;;;17.50;99.90;;;;;;4979810;28;20589;-84
2021/07/03 06:32:24;;;;;;;2.40;2.00;;;17.50;99.90;;;;;;4978946;28;20672;-85
2021/07/03 06:34:50;;;;;;;1.88;1.77;;;17.50;99.90;;;;;;4979859;28;20210;-85
2021/07/03 06:37:15;;;;;;;1.63;1.52;;;17.50;99.90;;;;;;4962366;28;20229;-84
2021/07/03 06:39:43;;;;;;;4.10;1.60;;;17.50;99.90;;;;;;4979836;28;20229;-84
2021/07/03 06:42:12;;;;;;;1.88;1.73;;;17.60;99.90;;;;;;4980248;28;20187;-85
2021/07/03 06:44:39;;;;;;;3.42;1.48;;;17.40;99.90;;;;;;4978383;28;20204;-85
2021/07/03 06:47:05;;;;;;;1.80;1.40;;;17.70;99.90;;;;;;4979650;28;20644;-84
2021/07/03 06:49:30;;;;;;;2.45;1.63;;;17.80;99.90;;;;;;4979629;28;20178;-84
2021/07/03 06:51:56;;;;;;;1.00;1.00;;;17.80;99.90;;;;;;4979491;28;20731;-84
2021/07/03 06:54:22;;;;;;;1.63;1.33;;;17.90;99.90;;;;;;4978308;28;20718;-85
2021/07/03 06:56:57;;;;;;;1.30;1.20;;;17.90;99.90;;;;;;4978174;28;20257;-85
2021/07/03 06:59:23;;;;;;;4.85;1.58;;;18.00;99.90;;;;;;4979722;28;20168;-85
2021/07/03 07:01:49;;;;;;;3.65;2.20;;;18.00;99.90;;;;;;4979551;28;20217;-85
2021/07/03 07:04:14;;;;;;;2.22;1.60;;;18.10;99.90;;;;;;4979690;28;20605;-85
2021/07/03 07:06:40;;;;;;;1.42;1.33;;;18.10;99.90;;;;;;4978490;28;20683;-87
2021/07/03 07:09:05;;;;;;;1.80;1.63;;;18.20;99.90;;;;;;4975819;28;20274;-85
2021/07/03 07:11:31;;;;;;;8.63;4.85;;;18.20;99.90;;;;;;4976313;28;20506;-86
2021/07/03 07:13:57;;;;;;;3.72;1.95;;;18.30;99.90;;;;;;4976212;28;20557;-84
2021/07/03 07:16:22;;;;;;;2.05;1.70;;;18.30;99.90;;;;;;4975911;28;20183;-86
2021/07/03 07:18:48;;;;;;;2.83;2.30;;;18.40;99.90;;;;;;4975085;28;20647;-85
2021/07/03 07:21:14;;;;;;;3.30;2.60;;;18.50;99.90;;;;;;4975342;28;20190;-84
2021/07/03 07:23:39;;;;;;;3.85;2.42;;;18.60;99.90;;;;;;4975399;28;20185;-85
2021/07/03 07:26:06;;;;;;;4.13;3.20;;;18.60;99.90;;;;;;4975021;28;20195;-86
2021/07/03 07:28:32;;;;;;;5.47;3.05;;;18.60;99.90;;;;;;4976105;28;20186;-84
2021/07/03 07:30:57;;;;;;;5.00;3.70;;;18.60;99.90;;;;;;4975031;28;20187;-85
2021/07/03 07:33:23;;;;;;;5.47;2.83;;;18.60;99.90;;;;;;4976451;28;20175;-86
2021/07/03 07:35:49;;;;;;;3.25;2.00;;;18.60;99.90;;;;;;4974614;28;20186;-84
2021/07/03 07:38:14;;;;;;;12.07;3.25;;;18.60;99.90;;;;;;4976239;28;20624;-84
2021/07/03 07:40:40;;;;;;;3.30;3.00;;;18.70;99.90;;;;;;4975942;28;20255;-83
2021/07/03 07:43:06;;;;;;;5.07;4.35;;;18.60;99.90;;;;;;4980548;28;20226;-83
2021/07/03 07:45:32;;;;;;;15.95;5.95;;;18.50;99.90;;;;;;4977261;28;20186;-84
2021/07/03 07:47:58;;;;;;;18.63;6.60;;;18.50;99.90;;;;;;4975763;28;20178;-84
2021/07/03 07:50:23;;;;;;;7.90;5.63;;;18.40;99.90;;;;;;4974873;28;20229;-84
2021/07/03 07:52:49;;;;;;;12.30;5.53;;;18.40;99.90;;;;;;4974339;28;20581;-84
2021/07/03 07:55:15;;;;;;;14.30;5.97;;;18.30;99.90;;;;;;4976125;28;20229;-85
2021/07/03 07:57:40;;;;;;;5.50;4.43;;;18.20;99.90;;;;;;4975991;28;20647;-86
2021/07/03 08:00:07;;;;;;;5.53;4.43;;;18.10;99.90;;;;;;4974257;28;20335;-85
2021/07/03 08:02:33;;;;;;;7.47;5.00;;;18.00;99.90;;;;;;4975681;28;20237;-84
2021/07/03 08:04:58;;;;;;;6.82;4.05;;;18.00;99.90;;;;;;4974916;28;20640;-84
2021/07/03 08:07:24;;;;;;;7.68;4.80;;;17.90;99.90;;;;;;4975767;28;20526;-84
2021/07/03 08:09:50;;;;;;;5.63;4.30;;;18.00;99.90;;;;;;4975481;28;20314;-85
2021/07/03 08:12:15;;;;;;;7.18;3.80;;;18.00;99.90;;;;;;4975831;28;20229;-85
2021/07/03 08:14:41;;;;;;;5.05;4.00;;;18.00;99.90;;;;;;4973488;28;20313;-85
2021/07/03 08:17:07;;;;;;;6.28;4.10;;;18.00;99.90;;;;;;4974946;28;20550;-84
2021/07/03 08:19:33;;;;;;;4.93;4.10;;;18.00;99.90;;;;;;4972840;28;20179;-85
2021/07/03 08:21:59;;;;;;;4.43;4.00;;;18.00;99.90;;;;;;4973943;28;20190;-85
2021/07/03 08:24:25;;;;;;;7.72;4.07;;;18.00;99.90;;;;;;4972734;28;20186;-84
2021/07/03 08:26:51;;;;;;;6.30;5.47;;;18.00;99.90;;;;;;4972389;28;20229;-83
2021/07/03 08:29:16;;;;;;;5.95;4.65;;;17.90;99.90;;;;;;4973381;28;20206;-84
2021/07/03 08:31:43;;;;;;;5.32;4.40;;;17.90;99.90;;;;;;4973759;28;20181;-81
2021/07/03 08:34:08;;;;;;;8.18;5.47;;;17.90;99.90;;;;;;4975130;28;20214;-82
2021/07/03 08:36:34;;;;;;;5.97;4.45;;;17.90;99.90;;;;;;4975529;28;20285;-83
2021/07/03 08:39:00;;;;;;;8.23;5.00;;;18.00;99.90;;;;;;4975111;28;20178;-83
2021/07/03 08:41:28;;;;;;;6.18;4.88;;;18.00;99.90;;;;;;4975449;28;20198;-83
2021/07/03 08:43:54;;;;;;;5.82;4.90;;;18.00;99.90;;;;;;4975145;28;20265;-84
2021/07/03 08:46:20;;;;;;;6.18;4.63;;;18.00;99.90;;;;;;4974448;28;20585;-83
2021/07/03 08:48:51;;;;;;;5.75;4.60;;;18.00;99.90;;;;;;4974152;28;20183;-83
2021/07/03 08:51:17;;;;;;;6.05;4.28;;;18.10;99.90;;;;;;4975761;28;20173;-84
2021/07/03 08:53:44;;;;;;;5.88;4.93;;;18.00;99.90;;;;;;4974070;28;20608;-83
2021/07/03 08:56:10;;;;;;;8.07;5.05;;;18.00;99.90;;;;;;4974684;28;20234;-83
2021/07/03 08:58:36;;;;;;;5.53;3.92;;;18.10;99.90;;;;;;4975021;28;20295;-83
2021/07/03 09:01:05;;;;;;;16.40;4.80;;;18.10;99.90;;;;;;4975027;28;20215;-84
2021/07/03 09:03:31;;;;;;;6.10;4.10;;;18.20;99.90;;;;;;4975238;28;20261;-84
2021/07/03 09:05:59;;;;;;;5.55;4.20;;;18.10;99.90;;;;;;4974522;28;20700;-84
2021/07/03 09:08:27;;;;;;;7.25;6.40;;;18.10;99.90;;;;;;4973903;28;20516;-85
2021/07/03 09:11:06;;;;;;;10.80;4.57;;;18.10;99.90;;;;;;4957620;28;20192;-85
2021/07/03 09:13:34;;;;;;;6.57;4.70;;;18.20;99.90;;;;;;4975106;28;20182;-84
2021/07/03 09:16:00;;;;;;;7.07;5.05;;;18.20;99.90;;;;;;4974590;28;20265;-84
2021/07/03 09:18:27;;;;;;;8.10;4.22;;;18.20;99.90;;;;;;4974737;28;20261;-84
2021/07/03 09:20:56;;;;;;;5.75;5.15;;;18.20;99.90;;;;;;4974649;28;20234;-84
2021/07/03 09:23:24;;;;;;;6.85;4.55;;;18.20;99.90;;;;;;4973029;28;20217;-86
2021/07/03 09:25:58;;;;;;;7.43;4.93;;;18.20;99.90;;;;;;4973467;28;20190;-85
2021/07/03 09:28:26;;;;;;;8.93;6.43;;;18.30;99.90;;;;;;4972922;28;20195;-85
2021/07/03 09:30:54;;;;;;;5.68;5.05;;;18.40;99.90;;;;;;4954948;28;20241;-85
2021/07/03 09:33:27;;;;;;;5.97;4.88;;;18.50;99.90;;;;;;4972475;28;20697;-85
2021/07/03 09:35:54;;;;;;;7.28;4.78;;;18.60;99.90;;;;;;4972439;28;20240;-85
2021/07/03 09:38:30;;;;;;;7.55;5.10;;;18.60;99.90;;;;;;4972921;28;20194;-85
2021/07/03 09:41:06;;;;;;;9.43;5.85;;;18.70;99.90;;;;;;4973361;28;20180;-85
2021/07/03 09:43:31;;;;;;;6.20;4.25;;;18.70;99.90;;;;;;4974673;28;20523;-84
2021/07/03 09:45:57;;;;;;;14.93;6.05;;;18.80;99.90;;;;;;4972695;28;20197;-84
2021/07/03 09:48:23;;;;;;;5.72;3.90;;;18.80;99.90;;;;;;4972785;28;20672;-86
2021/07/03 09:50:49;;;;;;;6.47;4.45;;;18.90;99.90;;;;;;4973106;28;20221;-85
2021/07/03 09:53:15;;;;;;;20.52;5.50;;;18.90;99.90;;;;;;4973973;28;20644;-85
2021/07/03 09:55:41;;;;;;;7.13;4.82;;;19.00;99.90;;;;;;4973468;28;20206;-84
2021/07/03 09:58:08;;;;;;;6.30;4.13;;;19.00;99.90;;;;;;4973667;28;20644;-84
2021/07/03 10:00:34;;;;;;;7.65;5.30;;;19.00;99.90;;;;;;4973026;28;20241;-84
2021/07/03 10:03:07;;;;;;;5.15;4.30;;;19.00;99.90;;;;;;4971850;28;20204;-85
2021/07/03 10:05:38;;;;;;;7.28;4.47;;;19.00;99.90;;;;;;4971281;28;20170;-84
2021/07/03 10:08:08;;;;;;;5.60;4.28;;;19.00;99.90;;;;;;4971841;28;20201;-84
2021/07/03 10:10:36;;;;;;;8.68;4.82;;;19.10;99.90;;;;;;4971508;28;20185;-85
2021/07/03 10:13:06;;;;;;;5.97;4.28;;;19.10;99.90;;;;;;4972632;28;20174;-83
2021/07/03 10:15:35;;;;;;;10.60;5.25;;;19.00;99.90;;;;;;4972588;28;20205;-83
2021/07/03 10:18:28;;;;;;;4.93;4.28;;;19.00;99.90;;;;;;4973062;28;20182;-83
2021/07/03 10:20:54;;;;;;;6.03;4.93;;;18.90;99.90;;;;;;4971236;28;20257;-84
2021/07/03 10:23:20;;;;;;;15.85;6.43;;;18.90;99.90;;;;;;4973378;28;20183;-83
2021/07/03 10:25:50;;;;;;;19.58;5.75;;;18.90;99.90;;;;;;4972747;28;20198;-84
2021/07/03 10:28:17;;;;;;;21.67;5.82;;;18.90;99.90;;;;;;4973168;28;20188;-84
2021/07/03 10:30:45;;;;;;;7.30;5.60;;;18.80;99.90;;;;;;4972677;28;20186;-84
2021/07/03 10:33:19;;;;;;;7.50;4.95;;;18.80;99.90;;;;;;4972439;28;20567;-83
2021/07/03 10:35:53;;;;;;;7.07;5.35;;;18.70;99.90;;;;;;4973297;28;20275;-82
2021/07/03 10:38:25;;;;;;;8.27;5.47;;;18.70;99.90;;;;;;4973558;28;20179;-83
2021/07/03 10:40:53;;;;;;;7.20;5.50;;;18.70;99.90;;;;;;4972739;28;20531;-84
2021/07/03 10:43:21;;;;;;;6.03;5.43;;;18.60;99.90;;;;;;4975102;28;20198;-84
2021/07/03 10:45:51;;;;;;;10.02;5.57;;;18.50;99.90;;;;;;4977990;28;20217;-84
2021/07/03 10:48:21;;;;;;;9.80;6.00;;;18.50;99.90;;;;;;4977461;28;20309;-85
2021/07/03 10:50:49;;;;;;;10.43;6.15;;;18.50;99.90;;;;;;4976217;28;20206;-84
2021/07/03 10:53:22;;;;;;;14.30;6.60;;;18.50;99.90;;;;;;4974460;28;20187;-85
2021/07/03 10:55:49;;;;;;;9.45;7.05;;;18.50;99.90;;;;;;4977205;28;20265;-83
2021/07/03 10:58:20;;;;;;;13.32;9.18;;;18.50;99.90;;;;;;4972909;28;20185;-86
2021/07/03 11:00:50;;;;;;;10.68;7.93;;;18.60;99.90;;;;;;4976264;28;20183;-85
2021/07/03 11:03:23;;;;;;;9.02;7.72;;;18.60;99.90;;;;;;4975812;28;20226;-85
2021/07/03 11:05:49;;;;;;;7.43;5.97;;;18.60;99.90;;;;;;4977424;28;20270;-84
2021/07/03 11:08:15;;;;;;;8.45;5.93;;;18.50;99.90;;;;;;4977146;28;20266;-84
2021/07/03 11:10:42;;;;;;;8.77;5.70;;;18.50;99.90;;;;;;4976232;28;20596;-84
2021/07/03 11:13:22;;;;;;;8.57;5.50;;;18.50;99.90;;;;;;4976991;28;20624;-84
2021/07/03 11:15:48;;;;;;;27.77;7.70;;;18.50;99.90;;;;;;4976487;28;20694;-83
2021/07/03 11:18:14;;;;;;;10.50;8.27;;;18.50;99.90;;;;;;4974006;28;20249;-85
2021/07/03 11:20:41;;;;;;;7.47;6.38;;;18.60;99.90;;;;;;4975801;28;20174;-84
2021/07/03 11:23:08;;;;;;;8.57;6.60;;;18.60;99.90;;;;;;4978393;28;20648;-84
2021/07/03 11:25:40;;;;;;;7.93;5.60;;;18.60;99.90;;;;;;4975269;28;20209;-83
2021/07/03 11:28:13;;;;;;;8.25;5.70;;;18.60;99.90;;;;;;4974990;28;20214;-84
2021/07/03 11:30:43;;;;;;;7.10;5.75;;;18.60;99.90;;;;;;4973598;28;20179;-83
2021/07/03 11:33:10;;;;;;;17.00;6.40;;;18.70;99.90;;;;;;4976606;28;20218;-82
2021/07/03 11:35:43;;;;;;;8.70;5.70;;;18.70;99.90;;;;;;4977132;28;20218;-91
2021/07/03 11:38:10;;;;;;;7.97;5.65;;;18.80;99.90;;;;;;4976535;28;20175;-83
2021/07/03 11:40:35;;;;;;;8.10;5.97;;;18.90;99.90;;;;;;4976142;28;20174;-83
2021/07/03 11:43:04;;;;;;;6.78;5.95;;;19.00;99.90;;;;;;4975449;28;20241;-82
2021/07/03 11:45:33;;;;;;;8.73;6.15;;;19.10;99.90;;;;;;4976446;28;20194;-82
2021/07/03 11:48:08;;;;;;;8.43;6.10;;;19.10;99.90;;;;;;4976292;28;20590;-84
2021/07/03 11:50:37;;;;;;;7.20;6.22;;;18.80;99.90;;;;;;4976507;28;20159;-83
2021/07/03 11:53:04;;;;;;;9.80;6.60;;;19.30;99.90;;;;;;4975715;28;20632;-84
2021/07/03 11:55:35;;;;;;;12.30;6.20;;;19.30;99.90;;;;;;4975622;28;20970;-84
2021/07/03 11:58:02;;;;;;;8.98;6.05;;;19.50;99.90;;;;;;4976652;28;20174;-83
2021/07/03 12:00:34;;;;;;;8.70;6.45;;;19.60;99.90;;;;;;4976189;28;20178;-83
2021/07/03 12:03:01;;;;;;;7.68;6.72;;;19.60;99.90;;;;;;4976978;28;20227;-84
2021/07/03 12:05:38;;;;;;;7.93;5.85;;;19.70;99.90;;;;;;4975913;28;20525;-84
2021/07/03 12:08:03;;;;;;;11.80;6.07;;;19.80;99.90;;;;;;4976365;28;20696;-83
2021/07/03 12:10:41;;;;;;;8.52;5.95;;;19.80;99.90;;;;;;4976295;28;20253;-84
2021/07/03 12:13:20;;;;;;;6.93;6.00;;;19.90;99.90;;;;;;4976557;28;20174;-84
2021/07/03 12:16:02;;;;;;;7.20;5.63;;;20.00;99.90;;;;;;4977173;28;20659;-83
2021/07/03 12:18:33;;;;;;;9.55;5.78;;;20.00;99.90;;;;;;4975949;28;20175;-84
2021/07/03 12:21:21;;;;;;;7.35;5.78;;;20.10;99.90;;;;;;4976216;28;20178;-82
2021/07/03 12:23:46;;;;;;;6.90;5.72;;;20.20;99.90;;;;;;4996048;28;20177;-82
2021/07/03 12:26:42;;;;;;;11.27;7.47;;;20.20;99.90;;;;;;4996159;28;20170;-83
2021/07/03 12:29:13;;;;;;;7.30;6.55;;;20.20;99.90;;;;;;4981641;28;20186;-83
2021/07/03 12:31:46;;;;;;;10.68;7.65;;;20.20;99.90;;;;;;4975839;28;20167;-84
2021/07/03 12:34:16;;;;;;;8.75;7.85;;;20.20;99.90;;;;;;4974649;28;20365;-85
2021/07/03 12:36:45;;;;;;;9.30;8.07;;;20.20;99.90;;;;;;4972320;28;20269;-83
2021/07/03 12:39:12;;;;;;;11.77;9.27;;;20.20;99.90;;;;;;4975034;28;20268;-80
2021/07/03 12:41:41;;;;;;;17.02;9.68;;;20.20;99.90;;;;;;4974251;28;20183;-82
2021/07/03 12:44:07;;;;;;;10.48;8.70;;;20.00;99.90;;;;;;4974134;28;20321;-85
2021/07/03 12:46:36;;;;;;;10.95;9.43;;;19.90;99.90;;;;;;4974458;28;20265;-84